-
-
136 m
2 m
0
3,8
7,5
15,04 km

Vista 9 vegades, descarregada 1 vegades

a prop de Cerca, Lisboa (Portugal)

O tempo já começa a aquecer muito para correr a esta hora: LPPT 031100Z 05013KT CAVOK 24/08 Q1020 NOSIG. Hoje, eu e o meu irmão Vasco, fizemos mais uma das nossas voltas Domingueiras. Tentamos não repetir os trajectos, para conhecer melhor a região. Esta zona é maravilhosa para a prática deste desporto. A companhia do Vasco é um tónico de si valioso para correr com alegria e juventude. Agradeço tudo ao meu irmão pelo que tem feito por mim neste âmbito.

Comentaris

    Si vols, pots o aquesta ruta.